createdAt,value
2023-03-31T00:01:19.571Z,55.45
2023-03-31T00:03:48.106Z,55.44
2023-03-31T00:06:21.702Z,55.61
2023-03-31T00:08:52.342Z,55.71
2023-03-31T00:11:24.735Z,55.76
2023-03-31T00:13:54.466Z,55.76
2023-03-31T00:16:23.011Z,55.64
2023-03-31T00:18:51.796Z,55.66
2023-03-31T00:21:33.900Z,55.59
2023-03-31T00:24:07.749Z,55.45
2023-03-31T00:26:36.672Z,55.50
2023-03-31T00:29:09.524Z,55.66
2023-03-31T00:31:38.971Z,55.60
2023-03-31T00:34:08.064Z,55.66
2023-03-31T00:36:47.548Z,55.75
2023-03-31T00:39:21.429Z,55.71
2023-03-31T00:41:50.465Z,55.78
2023-03-31T00:44:24.780Z,55.85
2023-03-31T00:46:56.827Z,55.91
2023-03-31T00:49:31.193Z,55.83
2023-03-31T00:52:05.718Z,55.70
2023-03-31T00:54:37.288Z,55.72
2023-03-31T00:57:07.772Z,55.71
2023-03-31T00:59:42.519Z,55.58
2023-03-31T01:02:14.271Z,55.66
2023-03-31T01:04:50.312Z,55.67
2023-03-31T01:07:25.816Z,55.82
2023-03-31T01:10:00.332Z,55.89
2023-03-31T01:12:29.390Z,55.76
2023-03-31T01:14:59.237Z,55.86
2023-03-31T01:17:29.938Z,55.89
2023-03-31T01:20:14.673Z,55.81
2023-03-31T01:23:45.937Z,55.77
2023-03-31T01:26:51.168Z,55.82
2023-03-31T01:29:52.724Z,55.75
2023-03-31T01:33:02.605Z,56.04
2023-03-31T01:36:21.234Z,55.85
2023-03-31T01:39:41.505Z,55.80
2023-03-31T01:42:16.553Z,55.81
2023-03-31T01:44:48.456Z,55.66
2023-03-31T01:47:23.135Z,55.61
2023-03-31T01:50:08.777Z,55.49
2023-03-31T01:52:44.089Z,55.31
2023-03-31T01:55:17.706Z,55.26
2023-03-31T01:57:53.018Z,55.21
2023-03-31T02:00:29.517Z,55.25
2023-03-31T02:03:08.084Z,55.24
2023-03-31T02:05:41.996Z,55.19
2023-03-31T02:08:14.723Z,55.12
2023-03-31T02:10:48.298Z,55.05
2023-03-31T02:13:20.336Z,55.11
2023-03-31T02:15:54.075Z,55.12
2023-03-31T02:18:30.634Z,55.23
2023-03-31T02:21:06.214Z,55.27
2023-03-31T02:23:35.870Z,55.22
2023-03-31T02:26:09.584Z,55.31
2023-03-31T02:28:39.695Z,55.45
2023-03-31T02:31:23.430Z,55.38
2023-03-31T02:33:51.776Z,55.52
2023-03-31T02:36:21.522Z,55.56
2023-03-31T02:38:56.502Z,55.59
2023-03-31T02:41:25.141Z,55.55
2023-03-31T02:43:54.902Z,55.45
2023-03-31T02:46:23.903Z,55.57
2023-03-31T02:48:56.705Z,55.52
2023-03-31T02:51:57.566Z,55.60
2023-03-31T02:55:16.188Z,55.46
2023-03-31T02:58:18.949Z,55.58
2023-03-31T03:01:06.004Z,55.61
2023-03-31T03:03:45.910Z,55.67
2023-03-31T03:06:31.703Z,55.59
2023-03-31T03:09:13.006Z,55.63
2023-03-31T03:11:50.005Z,55.75
2023-03-31T03:14:29.242Z,55.80
2023-03-31T03:17:03.386Z,55.83
2023-03-31T03:19:31.776Z,55.91
2023-03-31T03:22:00.214Z,56.05
2023-03-31T03:24:29.699Z,56.00
2023-03-31T03:26:58.580Z,56.26
2023-03-31T03:29:27.192Z,56.27
2023-03-31T03:31:55.536Z,56.20
2023-03-31T03:34:25.713Z,56.34
2023-03-31T03:36:54.142Z,56.31
2023-03-31T03:39:22.702Z,56.36
2023-03-31T03:41:53.380Z,56.52
2023-03-31T03:44:21.635Z,56.60
2023-03-31T03:46:49.982Z,56.54
2023-03-31T03:49:18.565Z,56.75
2023-03-31T03:51:48.384Z,56.75
2023-03-31T03:54:16.907Z,56.78
2023-03-31T03:56:45.351Z,56.83
2023-03-31T03:59:16.671Z,56.87
2023-03-31T04:01:47.731Z,56.82
2023-03-31T04:04:16.567Z,56.87
2023-03-31T04:06:44.835Z,57.00
2023-03-31T04:09:14.458Z,57.08
2023-03-31T04:11:43.012Z,57.11
2023-03-31T04:14:11.326Z,57.10
2023-03-31T04:16:40.651Z,57.23
2023-03-31T04:19:11.498Z,57.38
2023-03-31T04:21:45.519Z,57.48
2023-03-31T04:24:21.690Z,57.59
2023-03-31T04:26:53.433Z,57.62
2023-03-31T04:29:22.634Z,57.54
2023-03-31T04:31:52.710Z,57.79
2023-03-31T04:34:22.226Z,57.78
2023-03-31T04:36:56.847Z,57.72
2023-03-31T04:39:30.594Z,57.79
2023-03-31T04:42:01.753Z,57.76
2023-03-31T04:44:30.688Z,57.74
2023-03-31T04:47:02.934Z,57.78
2023-03-31T04:49:33.612Z,57.89
2023-03-31T04:52:02.104Z,57.97
2023-03-31T04:54:34.456Z,57.92
2023-03-31T04:57:02.800Z,58.00
2023-03-31T04:59:31.035Z,58.02
2023-03-31T05:01:59.311Z,58.00
2023-03-31T05:04:27.628Z,58.15
2023-03-31T05:06:56.505Z,58.21
2023-03-31T05:09:24.833Z,58.20
2023-03-31T05:11:54.480Z,58.19
2023-03-31T05:14:22.836Z,58.48
2023-03-31T05:16:51.591Z,58.84
2023-03-31T05:19:19.897Z,59.28
2023-03-31T05:21:48.993Z,59.84
2023-03-31T05:24:17.377Z,59.96
2023-03-31T05:26:49.811Z,60.24
2023-03-31T05:29:22.895Z,60.50
2023-03-31T05:31:51.458Z,60.51
2023-03-31T05:34:19.770Z,60.83
2023-03-31T05:36:50.530Z,60.98
2023-03-31T05:39:18.829Z,61.20
2023-03-31T05:41:47.136Z,61.19
2023-03-31T05:44:15.689Z,60.99
2023-03-31T05:46:45.469Z,60.99
2023-03-31T05:49:16.278Z,61.08
2023-03-31T05:51:44.568Z,60.85
2023-03-31T05:54:13.062Z,60.84
2023-03-31T05:56:41.762Z,60.66
2023-03-31T05:59:10.109Z,60.65
2023-03-31T06:01:38.482Z,60.42
2023-03-31T06:04:08.400Z,60.61
2023-03-31T06:06:38.131Z,60.32
2023-03-31T06:09:07.381Z,60.31
2023-03-31T06:11:35.959Z,60.22
2023-03-31T06:14:04.293Z,60.20
2023-03-31T06:16:35.114Z,60.11
2023-03-31T06:19:03.563Z,60.07
2023-03-31T06:21:33.582Z,60.18
2023-03-31T06:24:02.052Z,60.13
2023-03-31T06:26:30.470Z,60.23
2023-03-31T06:28:58.930Z,60.28
2023-03-31T06:31:27.546Z,60.31
2023-03-31T06:33:55.835Z,59.93
2023-03-31T06:36:24.372Z,60.37
2023-03-31T06:38:54.889Z,60.28
2023-03-31T06:41:23.355Z,60.17
2023-03-31T06:43:51.739Z,60.23
2023-03-31T06:46:20.513Z,60.25
2023-03-31T06:48:48.928Z,60.21
2023-03-31T06:51:17.562Z,60.33
2023-03-31T06:53:45.921Z,60.38
2023-03-31T06:56:15.559Z,60.45
2023-03-31T06:58:43.859Z,60.49
2023-03-31T07:01:12.552Z,60.57
2023-03-31T07:03:41.159Z,60.66
2023-03-31T07:06:09.642Z,60.65
2023-03-31T07:08:40.667Z,60.69
2023-03-31T07:11:09.430Z,60.87
2023-03-31T07:13:39.391Z,60.74
2023-03-31T07:16:10.032Z,60.85
2023-03-31T07:18:42.088Z,60.84
2023-03-31T07:21:13.409Z,60.76
2023-03-31T07:23:41.869Z,60.72
2023-03-31T07:26:11.467Z,60.71
2023-03-31T07:28:41.072Z,60.65
2023-03-31T07:31:13.716Z,60.58
2023-03-31T07:33:42.394Z,60.50
2023-03-31T07:36:13.978Z,60.58
2023-03-31T07:38:44.153Z,60.38
2023-03-31T07:41:14.329Z,60.46
2023-03-31T07:43:44.561Z,60.30
2023-03-31T07:46:18.883Z,60.25
2023-03-31T07:48:48.147Z,60.15
2023-03-31T07:51:18.320Z,59.96
2023-03-31T07:53:47.236Z,59.94
2023-03-31T07:56:17.028Z,60.04
2023-03-31T07:58:47.613Z,59.92
2023-03-31T08:01:19.056Z,59.86
2023-03-31T08:03:48.736Z,59.85
2023-03-31T08:06:20.562Z,59.83
2023-03-31T08:08:49.096Z,59.90
2023-03-31T08:11:17.423Z,59.89
2023-03-31T08:13:47.091Z,59.72
2023-03-31T08:16:15.620Z,59.90
2023-03-31T08:18:44.005Z,59.85
2023-03-31T08:21:12.372Z,59.82
2023-03-31T08:23:40.794Z,59.92
2023-03-31T08:26:11.940Z,60.02
2023-03-31T08:28:40.748Z,59.95
2023-03-31T08:31:11.821Z,59.97
2023-03-31T08:33:40.673Z,60.01
2023-03-31T08:36:11.129Z,60.11
2023-03-31T08:38:41.774Z,60.40
2023-03-31T08:41:37.579Z,60.37
2023-03-31T08:44:12.721Z,60.50
2023-03-31T08:46:43.770Z,60.72
2023-03-31T08:49:16.830Z,60.64
2023-03-31T08:51:50.196Z,60.67
2023-03-31T08:54:29.852Z,60.67
2023-03-31T08:56:58.812Z,60.81
2023-03-31T08:59:31.386Z,60.73
2023-03-31T09:02:13.520Z,60.66
2023-03-31T09:05:14.414Z,60.37
2023-03-31T09:07:53.097Z,60.43
2023-03-31T09:10:45.091Z,60.35
2023-03-31T09:13:34.655Z,60.30
2023-03-31T09:16:14.848Z,60.23
2023-03-31T09:18:46.759Z,60.28
2023-03-31T09:21:24.184Z,60.08
2023-03-31T09:23:59.872Z,59.94
2023-03-31T09:26:36.718Z,59.76
2023-03-31T09:29:14.505Z,59.99
2023-03-31T09:31:45.692Z,59.84
2023-03-31T09:34:18.699Z,59.85
2023-03-31T09:36:47.617Z,59.80
2023-03-31T09:39:16.658Z,60.04
2023-03-31T09:41:49.237Z,60.18
2023-03-31T09:44:27.940Z,60.24
2023-03-31T09:46:57.297Z,60.14
2023-03-31T09:49:30.308Z,60.16
2023-03-31T09:52:07.012Z,60.10
2023-03-31T09:54:43.200Z,60.25
2023-03-31T09:57:27.127Z,60.38
2023-03-31T10:00:05.461Z,60.83
2023-03-31T10:02:40.693Z,60.72
2023-03-31T10:05:26.836Z,61.27
2023-03-31T10:08:15.976Z,62.32
2023-03-31T10:10:49.270Z,63.37
2023-03-31T10:13:21.482Z,64.28
2023-03-31T10:15:54.520Z,64.83
2023-03-31T10:18:34.249Z,64.42
2023-03-31T10:21:05.933Z,63.73
2023-03-31T10:23:36.699Z,61.86
2023-03-31T10:26:06.149Z,61.75
2023-03-31T10:28:37.067Z,60.67
2023-03-31T10:31:08.521Z,59.96
2023-03-31T10:33:45.324Z,59.05
2023-03-31T10:36:23.969Z,58.85
2023-03-31T10:38:53.444Z,59.39
2023-03-31T10:41:25.341Z,59.34
2023-03-31T10:44:01.253Z,59.11
2023-03-31T10:46:44.475Z,57.69
2023-03-31T10:49:17.652Z,58.14
2023-03-31T10:51:56.172Z,57.70
2023-03-31T10:54:24.585Z,57.83
2023-03-31T10:56:56.544Z,57.06
2023-03-31T10:59:51.853Z,55.78
2023-03-31T11:03:02.956Z,52.01
2023-03-31T11:05:35.777Z,51.21
2023-03-31T11:08:28.335Z,51.53
2023-03-31T11:11:24.229Z,49.66
2023-03-31T11:14:01.300Z,49.56
2023-03-31T11:16:41.372Z,49.91
2023-03-31T11:19:24.093Z,48.14
2023-03-31T11:22:04.259Z,48.00
2023-03-31T11:25:10.604Z,48.34
2023-03-31T11:27:58.778Z,47.76
2023-03-31T11:30:33.621Z,46.59
2023-03-31T11:33:37.045Z,46.39
2023-03-31T11:36:22.232Z,46.45
2023-03-31T11:39:09.285Z,46.05
2023-03-31T11:41:43.433Z,45.72
2023-03-31T11:44:14.404Z,45.06
2023-03-31T11:46:49.518Z,44.41
2023-03-31T11:49:22.400Z,41.64
2023-03-31T11:51:54.750Z,41.41
2023-03-31T11:54:31.720Z,42.73
2023-03-31T11:57:08.388Z,41.70
2023-03-31T11:59:37.541Z,41.02
2023-03-31T12:02:16.566Z,41.24
2023-03-31T12:04:48.772Z,40.32
2023-03-31T12:07:25.786Z,41.48
2023-03-31T12:10:05.713Z,41.79
2023-03-31T12:12:40.577Z,42.11
2023-03-31T12:15:20.891Z,42.66
2023-03-31T12:17:57.401Z,42.67
2023-03-31T12:20:33.561Z,43.00
2023-03-31T12:23:05.585Z,42.92
2023-03-31T12:25:46.619Z,42.97
2023-03-31T12:28:18.325Z,43.10
2023-03-31T12:30:48.823Z,43.11
2023-03-31T12:33:23.789Z,43.16
2023-03-31T12:36:13.656Z,43.46
2023-03-31T12:39:00.119Z,42.79
2023-03-31T12:41:39.450Z,43.37
2023-03-31T12:44:28.207Z,43.00
2023-03-31T12:47:33.639Z,43.25
2023-03-31T12:50:19.182Z,43.06
2023-03-31T12:52:54.118Z,42.73
2023-03-31T12:55:34.938Z,42.47
2023-03-31T12:58:45.523Z,42.85
2023-03-31T13:01:21.595Z,42.78
2023-03-31T13:04:11.217Z,42.46
2023-03-31T13:07:04.672Z,40.39
2023-03-31T13:09:53.955Z,40.03
2023-03-31T13:12:25.655Z,39.12
2023-03-31T13:14:59.028Z,40.30
2023-03-31T13:17:33.054Z,40.42
2023-03-31T13:20:28.097Z,40.53
2023-03-31T13:23:04.299Z,40.23
2023-03-31T13:25:51.817Z,40.02
2023-03-31T13:28:44.900Z,39.56
2023-03-31T13:31:15.950Z,39.29
2023-03-31T13:33:58.581Z,39.46
2023-03-31T13:36:52.890Z,38.86
2023-03-31T13:40:09.307Z,39.71
2023-03-31T13:43:12.788Z,40.41
2023-03-31T13:45:56.462Z,40.54
2023-03-31T13:48:54.494Z,41.51
2023-03-31T13:51:42.289Z,41.47
2023-03-31T13:54:52.078Z,41.56
2023-03-31T13:57:57.580Z,42.02
2023-03-31T14:00:41.961Z,41.31
2023-03-31T14:03:47.557Z,41.50
2023-03-31T14:06:26.548Z,40.85
2023-03-31T14:08:59.254Z,41.44
2023-03-31T14:11:29.723Z,42.16
2023-03-31T14:14:07.788Z,42.05
2023-03-31T14:16:39.969Z,42.64
2023-03-31T14:19:43.570Z,43.17
2023-03-31T14:22:32.232Z,42.28
2023-03-31T14:25:13.968Z,41.46
2023-03-31T14:27:58.476Z,41.46
2023-03-31T14:30:42.423Z,41.39
2023-03-31T14:33:27.523Z,41.97
2023-03-31T14:36:02.824Z,42.58
2023-03-31T14:38:32.272Z,42.54
2023-03-31T14:41:01.995Z,42.94
2023-03-31T14:43:34.659Z,42.35
2023-03-31T14:46:05.800Z,42.75
2023-03-31T14:48:36.599Z,41.70
2023-03-31T14:51:10.930Z,40.75
2023-03-31T14:53:39.845Z,40.37
2023-03-31T14:56:14.020Z,40.72
2023-03-31T14:58:45.926Z,40.48
2023-03-31T15:01:18.445Z,40.32
2023-03-31T15:03:47.918Z,40.84
2023-03-31T15:06:17.660Z,41.11
2023-03-31T15:08:46.709Z,41.05
2023-03-31T15:11:20.908Z,41.20
2023-03-31T15:14:03.444Z,40.32
2023-03-31T15:16:42.345Z,40.34
2023-03-31T15:19:17.354Z,39.78
2023-03-31T15:21:46.371Z,40.40
2023-03-31T15:24:15.918Z,40.56
2023-03-31T15:26:51.532Z,41.02
2023-03-31T15:29:24.357Z,41.45
2023-03-31T15:31:52.879Z,42.18
2023-03-31T15:34:27.936Z,42.19
2023-03-31T15:36:58.010Z,41.80
2023-03-31T15:39:28.849Z,41.06
2023-03-31T15:42:00.002Z,41.05
2023-03-31T15:44:39.516Z,41.91
2023-03-31T15:47:25.363Z,41.93
2023-03-31T15:49:57.260Z,41.79
2023-03-31T15:52:33.966Z,41.81
2023-03-31T15:55:03.555Z,42.32
2023-03-31T15:57:37.219Z,42.45
2023-03-31T16:00:08.208Z,42.35
2023-03-31T16:02:44.519Z,42.34
2023-03-31T16:05:37.434Z,42.72
2023-03-31T16:08:16.822Z,41.43
2023-03-31T16:10:45.773Z,41.37
2023-03-31T16:13:23.163Z,41.73
2023-03-31T16:15:55.233Z,41.36
2023-03-31T16:18:32.200Z,41.00
2023-03-31T16:21:03.535Z,41.92
2023-03-31T16:23:35.123Z,42.34
2023-03-31T16:26:03.809Z,42.22
2023-03-31T16:28:41.590Z,42.65
2023-03-31T16:31:34.367Z,43.23
2023-03-31T16:34:04.399Z,43.48
2023-03-31T16:36:32.766Z,43.43
2023-03-31T16:39:04.984Z,43.39
2023-03-31T16:41:34.205Z,43.10
2023-03-31T16:44:04.465Z,43.45
2023-03-31T16:46:32.958Z,43.30
2023-03-31T16:49:01.417Z,43.53
2023-03-31T16:51:29.766Z,43.32
2023-03-31T16:53:59.408Z,42.96
2023-03-31T16:56:28.295Z,41.93
2023-03-31T16:58:56.678Z,42.27
2023-03-31T17:01:26.452Z,42.02
2023-03-31T17:03:55.112Z,42.22
2023-03-31T17:06:23.589Z,42.90
2023-03-31T17:08:51.962Z,43.31
2023-03-31T17:11:20.402Z,43.50
2023-03-31T17:13:49.082Z,43.75
2023-03-31T17:16:24.455Z,43.99
2023-03-31T17:18:58.971Z,44.12
2023-03-31T17:21:30.175Z,44.72
2023-03-31T17:24:00.222Z,44.60
2023-03-31T17:26:30.019Z,44.66
2023-03-31T17:29:01.679Z,44.76
2023-03-31T17:31:30.660Z,44.67
2023-03-31T17:34:01.424Z,44.86
2023-03-31T17:36:29.906Z,45.01
2023-03-31T17:39:00.183Z,45.17
2023-03-31T17:41:30.414Z,45.37
2023-03-31T17:43:59.118Z,45.36
2023-03-31T17:46:27.669Z,45.49
2023-03-31T17:48:58.353Z,45.63
2023-03-31T17:51:28.967Z,45.82
2023-03-31T17:53:57.558Z,45.92
2023-03-31T17:56:27.557Z,45.86
2023-03-31T17:58:57.321Z,46.00
2023-03-31T18:01:25.646Z,46.12
2023-03-31T18:03:56.150Z,46.10
2023-03-31T18:06:25.680Z,46.23
2023-03-31T18:08:57.049Z,46.17
2023-03-31T18:11:26.009Z,46.09
2023-03-31T18:13:54.377Z,45.99
2023-03-31T18:16:22.820Z,46.25
2023-03-31T18:18:51.180Z,46.22
2023-03-31T18:21:19.691Z,46.36
2023-03-31T18:23:52.572Z,46.62
2023-03-31T18:26:24.615Z,46.75
2023-03-31T18:28:53.173Z,46.48
2023-03-31T18:31:22.583Z,46.84
2023-03-31T18:33:52.305Z,46.92
2023-03-31T18:36:22.970Z,47.04
2023-03-31T18:38:53.352Z,46.81
2023-03-31T18:41:23.767Z,46.86
2023-03-31T18:43:52.316Z,46.85
2023-03-31T18:46:21.351Z,46.75
2023-03-31T18:48:50.340Z,47.31
2023-03-31T18:51:19.264Z,46.86
2023-03-31T18:53:47.682Z,46.59
2023-03-31T18:56:16.115Z,46.65
2023-03-31T18:58:45.974Z,46.84
2023-03-31T19:01:14.367Z,46.70
2023-03-31T19:03:44.450Z,46.70
2023-03-31T19:06:13.212Z,46.51
2023-03-31T19:08:41.957Z,46.79
2023-03-31T19:11:12.816Z,46.81
2023-03-31T19:13:42.872Z,46.72
2023-03-31T19:16:13.748Z,46.61
2023-03-31T19:18:43.228Z,46.90
2023-03-31T19:21:11.984Z,47.01
2023-03-31T19:23:40.762Z,47.02
2023-03-31T19:26:09.163Z,46.84
2023-03-31T19:28:37.487Z,46.96
2023-03-31T19:31:06.554Z,47.04
2023-03-31T19:33:36.449Z,47.38
2023-03-31T19:36:05.681Z,47.24
2023-03-31T19:38:36.668Z,47.29
2023-03-31T19:41:06.350Z,47.40
2023-03-31T19:43:37.749Z,47.27
2023-03-31T19:46:06.474Z,47.23
2023-03-31T19:48:37.582Z,47.27
2023-03-31T19:51:07.327Z,47.15
2023-03-31T19:53:38.101Z,47.35
2023-03-31T19:56:09.091Z,47.07
2023-03-31T19:58:38.663Z,47.00
2023-03-31T20:01:09.475Z,47.20
2023-03-31T20:03:39.310Z,47.44
2023-03-31T20:06:09.798Z,47.35
2023-03-31T20:08:39.518Z,47.45
2023-03-31T20:11:11.251Z,47.41
2023-03-31T20:13:40.137Z,47.41
2023-03-31T20:16:11.185Z,47.46
2023-03-31T20:18:43.587Z,47.22
2023-03-31T20:21:14.683Z,47.47
2023-03-31T20:23:44.531Z,47.54
2023-03-31T20:26:15.399Z,47.44
2023-03-31T20:28:44.372Z,47.60
2023-03-31T20:31:16.078Z,47.69
2023-03-31T20:33:46.517Z,47.80
2023-03-31T20:36:18.112Z,47.86
2023-03-31T20:38:51.113Z,48.00
2023-03-31T20:41:21.793Z,47.85
2023-03-31T20:43:50.599Z,47.97
2023-03-31T20:46:19.269Z,47.97
2023-03-31T20:48:51.448Z,47.94
2023-03-31T20:51:22.125Z,47.95
2023-03-31T20:53:53.170Z,48.00
2023-03-31T20:56:23.667Z,47.97
2023-03-31T20:58:53.689Z,48.05
2023-03-31T21:01:23.645Z,48.01
2023-03-31T21:03:54.717Z,48.00
2023-03-31T21:06:23.884Z,48.07
2023-03-31T21:08:54.403Z,48.31
2023-03-31T21:11:24.164Z,48.26
2023-03-31T21:13:53.357Z,48.16
2023-03-31T21:16:23.105Z,48.52
2023-03-31T21:18:54.957Z,48.42
2023-03-31T21:21:24.836Z,48.64
2023-03-31T21:23:53.592Z,48.71
2023-03-31T21:26:22.934Z,48.88
2023-03-31T21:28:54.329Z,49.04
2023-03-31T21:31:25.334Z,48.92
2023-03-31T21:33:57.758Z,48.98
2023-03-31T21:36:26.782Z,49.00
2023-03-31T21:38:56.603Z,49.10
2023-03-31T21:41:27.188Z,49.08
2023-03-31T21:43:55.854Z,49.24
2023-03-31T21:46:27.446Z,49.22
2023-03-31T21:48:57.621Z,49.22
2023-03-31T21:51:26.681Z,49.22
2023-03-31T21:53:56.460Z,49.28
2023-03-31T21:56:27.689Z,49.33
2023-03-31T21:58:57.093Z,49.37
2023-03-31T22:01:25.496Z,49.21
2023-03-31T22:03:53.863Z,49.32
2023-03-31T22:06:23.620Z,49.18
2023-03-31T22:08:51.939Z,49.04
2023-03-31T22:11:20.218Z,48.89
2023-03-31T22:13:48.478Z,48.80
2023-03-31T22:16:19.570Z,48.78
2023-03-31T22:18:50.333Z,48.67
2023-03-31T22:21:22.918Z,48.57
2023-03-31T22:23:53.558Z,48.85
2023-03-31T22:26:22.733Z,48.59
2023-03-31T22:28:51.340Z,48.79
2023-03-31T22:31:20.691Z,49.01
2023-03-31T22:33:49.544Z,49.01
2023-03-31T22:36:17.902Z,48.95
2023-03-31T22:38:47.627Z,49.10
2023-03-31T22:41:15.931Z,48.82
2023-03-31T22:43:45.994Z,49.01
2023-03-31T22:46:15.887Z,48.92
2023-03-31T22:48:44.374Z,48.92
2023-03-31T22:51:13.261Z,48.91
2023-03-31T22:53:41.745Z,48.77
2023-03-31T22:56:13.400Z,48.86
2023-03-31T22:58:41.684Z,48.83
2023-03-31T23:01:15.604Z,48.87
2023-03-31T23:03:44.723Z,49.02
2023-03-31T23:06:14.045Z,48.87
2023-03-31T23:08:43.732Z,48.94
2023-03-31T23:11:14.656Z,48.91
2023-03-31T23:13:43.168Z,49.09
2023-03-31T23:16:15.644Z,49.09
2023-03-31T23:18:46.155Z,48.99
2023-03-31T23:21:16.196Z,49.06
2023-03-31T23:23:44.514Z,49.17
2023-03-31T23:26:15.813Z,49.28
2023-03-31T23:28:45.480Z,49.38
2023-03-31T23:31:14.717Z,49.46
2023-03-31T23:33:43.246Z,49.34
2023-03-31T23:36:17.044Z,49.48
2023-03-31T23:38:46.520Z,49.41
2023-03-31T23:41:16.996Z,49.83
2023-03-31T23:43:45.789Z,49.98
2023-03-31T23:46:14.634Z,49.68
2023-03-31T23:48:43.080Z,49.99
2023-03-31T23:51:12.640Z,49.66
2023-03-31T23:53:41.157Z,49.95
2023-03-31T23:56:15.849Z,50.03
2023-03-31T23:58:45.109Z,49.94
